Shaw, Missouri
Current Conditions -  °F | °C
As of 7:16 AM on Friday 24 Oct 2014 (Local Time) from KCOU Reporting Station
Haze Haze  
Wind Chill: 55°   Ceiling: 900
Heat Index: 55°   Visibility: 3mi
Dew Point: 55°   Wind: 6mph
Humidity: 100%   Direction: 230°SW
Pressure: 30.1"   Gusts: NA
Location:  39.0235°N, 92.2896°W
Report Text: KCOU 241216Z 23005KT 3SM BR OVC009 13/13 A3010 RMK AO2 T01280128
Loading
Personal Weather Stations






























Interactive Weather Map New forecast layout! Learn more

10-Day Weather Forecast

Advertisements
Track Severe Weather on mobile